createdAt,value
2017-04-09T00:00:39.129Z,30.54
2017-04-09T00:01:36.998Z,32.13
2017-04-09T00:02:34.825Z,30.64
2017-04-09T00:03:32.637Z,31.71
2017-04-09T00:04:31.053Z,28.86
2017-04-09T00:05:28.841Z,29.99
2017-04-09T00:06:26.646Z,29.56
2017-04-09T00:07:24.435Z,30.04
2017-04-09T00:08:22.263Z,27.67
2017-04-09T00:09:20.823Z,30.53
2017-04-09T00:10:18.646Z,31.19
2017-04-09T00:11:16.498Z,29.49
2017-04-09T00:12:14.353Z,30.61
2017-04-09T00:13:12.149Z,30.53
2017-04-09T00:14:10.006Z,31.36
2017-04-09T00:15:07.828Z,30.77
2017-04-09T00:16:05.621Z,31.76
2017-04-09T00:17:04.081Z,32.36
2017-04-09T00:18:01.997Z,31.53
2017-04-09T00:18:59.786Z,31.77
2017-04-09T00:19:57.592Z,31.09
2017-04-09T00:20:55.501Z,29.64
2017-04-09T00:21:53.282Z,30.10
2017-04-09T00:22:51.125Z,29.81
2017-04-09T00:23:49.577Z,31.47
2017-04-09T00:24:47.389Z,31.37
2017-04-09T00:25:45.246Z,30.79
2017-04-09T00:26:43.777Z,32.50
2017-04-09T00:27:41.553Z,30.13
2017-04-09T00:28:39.346Z,31.11
2017-04-09T00:29:37.242Z,30.73
2017-04-09T00:30:35.138Z,32.51
2017-04-09T00:31:32.955Z,31.97
2017-04-09T00:32:30.874Z,29.91
2017-04-09T00:33:28.686Z,30.43
2017-04-09T00:34:26.490Z,33.97
2017-04-09T00:35:24.278Z,31.06
2017-04-09T00:36:22.114Z,28.69
2017-04-09T00:37:19.988Z,30.51
2017-04-09T00:38:17.769Z,29.99
2017-04-09T00:39:16.241Z,29.36
2017-04-09T00:40:14.111Z,31.33
2017-04-09T00:41:11.901Z,30.73
2017-04-09T00:42:09.816Z,30.44
2017-04-09T00:43:08.454Z,29.84
2017-04-09T00:44:06.252Z,30.50
2017-04-09T00:45:04.837Z,31.74
2017-04-09T00:46:03.428Z,31.03
2017-04-09T00:47:01.253Z,30.47
2017-04-09T00:47:59.037Z,30.79
2017-04-09T00:48:56.834Z,31.21
2017-04-09T00:49:54.629Z,30.93
2017-04-09T00:50:53.153Z,30.40
2017-04-09T00:51:50.989Z,30.30
2017-04-09T00:52:48.777Z,32.73
2017-04-09T00:53:46.611Z,30.91
2017-04-09T00:54:44.427Z,29.69
2017-04-09T00:55:42.246Z,28.50
2017-04-09T00:56:40.732Z,29.67
2017-04-09T00:57:38.578Z,28.09
2017-04-09T00:58:37.041Z,28.97
2017-04-09T00:59:34.848Z,29.81
2017-04-09T01:00:32.733Z,29.44
2017-04-09T01:01:30.510Z,29.31
2017-04-09T01:02:28.289Z,30.03
2017-04-09T01:03:26.818Z,28.60
2017-04-09T01:04:24.662Z,26.20
2017-04-09T01:05:22.549Z,29.16
2017-04-09T01:06:20.365Z,28.43
2017-04-09T01:07:18.165Z,29.99
2017-04-09T01:08:16.632Z,30.94
2017-04-09T01:09:14.477Z,29.54
2017-04-09T01:10:12.271Z,27.60
2017-04-09T01:11:10.094Z,27.60
2017-04-09T01:12:07.979Z,27.50
2017-04-09T01:13:05.819Z,28.87
2017-04-09T01:14:03.594Z,30.54
2017-04-09T01:15:02.129Z,28.37
2017-04-09T01:16:00.600Z,29.91
2017-04-09T01:16:58.406Z,27.39
2017-04-09T01:17:56.205Z,30.31
2017-04-09T01:18:54.005Z,28.57
2017-04-09T01:19:51.785Z,30.43
2017-04-09T01:20:49.625Z,31.41
2017-04-09T01:21:47.417Z,28.49
2017-04-09T01:22:45.223Z,29.03
2017-04-09T01:23:43.754Z,28.97
2017-04-09T01:24:41.541Z,28.01
2017-04-09T01:25:40.093Z,27.84
2017-04-09T01:26:37.874Z,28.67
2017-04-09T01:27:36.401Z,27.03
2017-04-09T01:28:34.240Z,29.07
2017-04-09T01:29:32.042Z,27.87
2017-04-09T01:30:30.621Z,28.80
2017-04-09T01:31:28.414Z,29.84
2017-04-09T01:32:26.227Z,27.73
2017-04-09T01:33:24.769Z,28.66
2017-04-09T01:34:22.555Z,28.81
2017-04-09T01:35:21.115Z,27.76
2017-04-09T01:36:18.929Z,26.04
2017-04-09T01:37:16.737Z,30.19
2017-04-09T01:38:15.278Z,27.11
2017-04-09T01:39:13.141Z,26.90
2017-04-09T01:40:10.945Z,27.26
2017-04-09T01:41:08.765Z,30.24
2017-04-09T01:42:07.285Z,27.76
2017-04-09T01:43:05.113Z,26.26
2017-04-09T01:44:02.915Z,28.76
2017-04-09T01:45:00.849Z,28.13
2017-04-09T01:45:58.709Z,27.81
2017-04-09T01:46:56.670Z,26.91
2017-04-09T01:47:54.749Z,29.00
2017-04-09T01:48:52.564Z,26.33
2017-04-09T01:49:51.122Z,27.17
2017-04-09T01:50:49.682Z,29.03
2017-04-09T01:51:47.513Z,28.13
2017-04-09T01:52:45.321Z,28.10
2017-04-09T01:53:43.169Z,27.49
2017-04-09T01:54:41.709Z,26.84
2017-04-09T01:55:39.561Z,26.40
2017-04-09T01:56:37.367Z,26.87
2017-04-09T01:57:35.238Z,26.29
2017-04-09T01:58:33.213Z,26.56
2017-04-09T01:59:31.037Z,30.24
2017-04-09T02:00:28.850Z,25.57
2017-04-09T02:01:26.693Z,28.00
2017-04-09T02:02:24.549Z,27.53
2017-04-09T02:03:22.350Z,24.04
2017-04-09T02:04:20.917Z,27.31
2017-04-09T02:05:19.462Z,24.97
2017-04-09T02:06:17.261Z,26.27
2017-04-09T02:07:15.106Z,25.91
2017-04-09T02:08:12.903Z,26.70
2017-04-09T02:09:10.689Z,28.24
2017-04-09T02:10:08.469Z,27.16
2017-04-09T02:11:07.151Z,26.91
2017-04-09T02:12:05.012Z,26.10
2017-04-09T02:13:02.886Z,26.86
2017-04-09T02:14:00.685Z,24.49
2017-04-09T02:14:58.486Z,24.30
2017-04-09T02:15:56.273Z,25.71
2017-04-09T02:16:54.077Z,25.94
2017-04-09T02:17:51.886Z,24.17
2017-04-09T02:18:49.715Z,27.01
2017-04-09T02:19:47.505Z,26.17
2017-04-09T02:20:45.301Z,25.01
2017-04-09T02:21:43.109Z,26.71
2017-04-09T02:22:41.569Z,24.13
2017-04-09T02:23:39.390Z,25.21
2017-04-09T02:24:37.171Z,25.64
2017-04-09T02:25:34.959Z,24.93
2017-04-09T02:26:32.779Z,24.84
2017-04-09T02:27:30.589Z,26.04
2017-04-09T02:28:28.373Z,24.97
2017-04-09T02:29:26.161Z,26.94
2017-04-09T02:30:23.960Z,24.60
2017-04-09T02:31:21.805Z,24.53
2017-04-09T02:32:19.607Z,25.70
2017-04-09T02:33:17.397Z,25.44
2017-04-09T02:34:15.192Z,25.16
2017-04-09T02:35:12.976Z,24.11
2017-04-09T02:36:10.781Z,25.40
2017-04-09T02:37:08.584Z,22.79
2017-04-09T02:38:06.361Z,27.03
2017-04-09T02:39:04.409Z,24.26
2017-04-09T02:40:02.221Z,24.81
2017-04-09T02:41:00.037Z,24.60
2017-04-09T02:41:57.872Z,24.77
2017-04-09T02:42:55.650Z,23.54
2017-04-09T02:43:54.276Z,25.20
2017-04-09T02:44:52.062Z,25.04
2017-04-09T02:45:49.857Z,24.89
2017-04-09T02:46:48.501Z,25.11
2017-04-09T02:47:46.330Z,26.79
2017-04-09T02:48:44.142Z,27.73
2017-04-09T02:49:42.673Z,26.80
2017-04-09T02:50:40.469Z,24.06
2017-04-09T02:51:39.246Z,26.81
2017-04-09T02:52:37.781Z,26.26
2017-04-09T02:53:35.605Z,25.57
2017-04-09T02:54:33.397Z,27.17
2017-04-09T02:55:31.197Z,22.99
2017-04-09T02:56:29.017Z,24.59
2017-04-09T02:57:26.793Z,26.99
2017-04-09T02:58:25.325Z,25.00
2017-04-09T02:59:23.142Z,26.23
2017-04-09T03:00:20.961Z,26.43
2017-04-09T03:01:19.441Z,26.40
2017-04-09T03:02:17.226Z,26.26
2017-04-09T03:03:15.001Z,25.84
2017-04-09T03:04:12.801Z,24.46
2017-04-09T03:05:11.309Z,26.77
2017-04-09T03:06:09.093Z,26.61
2017-04-09T03:07:06.862Z,26.37
2017-04-09T03:08:04.689Z,28.37
2017-04-09T03:09:02.549Z,32.46
2017-04-09T03:10:00.353Z,28.19
2017-04-09T03:10:58.804Z,31.09
2017-04-09T03:11:57.315Z,28.69
2017-04-09T03:12:55.123Z,28.30
2017-04-09T03:13:52.975Z,26.74
2017-04-09T03:14:50.761Z,27.97
2017-04-09T03:15:49.311Z,27.67
2017-04-09T03:16:47.828Z,28.13
2017-04-09T03:17:45.613Z,28.16
2017-04-09T03:18:43.379Z,32.81
2017-04-09T03:19:41.850Z,28.36
2017-04-09T03:20:39.646Z,28.69
2017-04-09T03:21:37.440Z,25.96
2017-04-09T03:22:35.262Z,27.99
2017-04-09T03:23:33.054Z,25.97
2017-04-09T03:24:30.850Z,27.10
2017-04-09T03:25:28.665Z,26.43
2017-04-09T03:26:26.511Z,27.06
2017-04-09T03:27:24.288Z,25.09
2017-04-09T03:28:22.057Z,26.39
2017-04-09T03:29:19.815Z,26.49
2017-04-09T03:30:18.265Z,29.13
2017-04-09T03:31:16.069Z,27.81
2017-04-09T03:32:14.593Z,27.61
2017-04-09T03:33:12.345Z,28.81
2017-04-09T03:34:10.107Z,26.27
2017-04-09T03:35:07.885Z,27.06
2017-04-09T03:36:05.745Z,26.16
2017-04-09T03:37:03.501Z,25.49
2017-04-09T03:38:01.275Z,29.43
2017-04-09T03:38:59.774Z,27.96
2017-04-09T03:39:57.557Z,26.57
2017-04-09T03:40:55.409Z,30.09
2017-04-09T03:41:53.189Z,25.40
2017-04-09T03:42:51.613Z,26.46
2017-04-09T03:43:50.065Z,26.79
2017-04-09T03:44:47.837Z,24.93
2017-04-09T03:45:45.617Z,27.41
2017-04-09T03:46:43.557Z,29.87
2017-04-09T03:47:41.350Z,26.06
2017-04-09T03:48:39.893Z,30.30
2017-04-09T03:49:37.658Z,28.60
2017-04-09T03:50:35.434Z,30.73
2017-04-09T03:51:33.909Z,28.77
2017-04-09T03:52:31.682Z,29.24
2017-04-09T03:53:29.477Z,26.51
2017-04-09T03:54:27.249Z,27.64
2017-04-09T03:55:25.045Z,26.13
2017-04-09T03:56:23.026Z,26.70
2017-04-09T03:57:20.830Z,32.09
2017-04-09T03:58:19.452Z,25.81
2017-04-09T03:59:17.225Z,26.27
2017-04-09T04:00:15.069Z,25.17
2017-04-09T04:01:12.853Z,28.33
2017-04-09T04:02:10.677Z,26.69
2017-04-09T04:03:08.482Z,26.11
2017-04-09T04:04:07.022Z,27.87
2017-04-09T04:05:04.859Z,24.71
2017-04-09T04:06:02.669Z,27.03
2017-04-09T04:07:00.497Z,25.04
2017-04-09T04:07:58.282Z,25.26
2017-04-09T04:08:56.853Z,28.59
2017-04-09T04:09:55.401Z,29.91
2017-04-09T04:10:53.220Z,30.10
2017-04-09T04:11:51.032Z,26.50
2017-04-09T04:12:49.569Z,26.46
2017-04-09T04:13:47.437Z,26.04
2017-04-09T04:14:45.371Z,26.97
2017-04-09T04:15:43.172Z,26.56
2017-04-09T04:16:44.823Z,27.17
2017-04-09T04:17:43.393Z,25.33
2017-04-09T04:18:41.854Z,25.27
2017-04-09T04:19:40.420Z,25.03
2017-04-09T04:20:38.972Z,24.29
2017-04-09T04:21:36.771Z,24.63
2017-04-09T04:22:34.577Z,26.14
2017-04-09T04:23:32.353Z,24.01
2017-04-09T04:24:30.146Z,26.10
2017-04-09T04:25:28.709Z,26.67
2017-04-09T04:26:27.302Z,30.54
2017-04-09T04:27:25.109Z,29.61
2017-04-09T04:28:23.576Z,26.97
2017-04-09T04:29:21.374Z,28.49
2017-04-09T04:30:19.196Z,28.87
2017-04-09T04:31:17.649Z,28.56
2017-04-09T04:32:15.449Z,29.83
2017-04-09T04:33:13.981Z,26.99
2017-04-09T04:34:11.777Z,27.79
2017-04-09T04:35:09.570Z,27.23
2017-04-09T04:36:07.362Z,26.74
2017-04-09T04:37:05.173Z,28.67
2017-04-09T04:38:02.981Z,28.87
2017-04-09T04:39:01.526Z,26.97
2017-04-09T04:39:59.330Z,27.10
2017-04-09T04:40:57.117Z,27.64
2017-04-09T04:41:54.961Z,27.33
2017-04-09T04:42:52.774Z,26.89
2017-04-09T04:43:51.318Z,26.30
2017-04-09T04:44:49.097Z,26.33
2017-04-09T04:45:46.961Z,28.26
2017-04-09T04:46:44.762Z,25.93
2017-04-09T04:47:42.582Z,27.54
2017-04-09T04:48:41.137Z,28.87
2017-04-09T04:49:38.949Z,24.90
2017-04-09T04:50:36.730Z,27.11
2017-04-09T04:51:34.509Z,26.50
2017-04-09T04:52:33.039Z,24.19
2017-04-09T04:53:30.864Z,25.66
2017-04-09T04:54:28.649Z,25.31
2017-04-09T04:55:26.433Z,28.26
2017-04-09T04:56:24.897Z,26.94
2017-04-09T04:57:22.700Z,29.03
2017-04-09T04:58:20.513Z,29.87
2017-04-09T04:59:19.009Z,28.80
2017-04-09T05:00:16.813Z,30.19
2017-04-09T05:01:14.574Z,29.14
2017-04-09T05:02:12.329Z,29.83
2017-04-09T05:03:10.108Z,28.67
2017-04-09T05:04:07.903Z,28.90
2017-04-09T05:05:05.691Z,27.69
2017-04-09T05:06:03.457Z,30.44
2017-04-09T05:07:01.225Z,29.99
2017-04-09T05:07:59.762Z,30.09
2017-04-09T05:08:57.530Z,28.14
2017-04-09T05:09:55.981Z,32.59
2017-04-09T05:10:53.757Z,32.64
2017-04-09T05:11:51.533Z,30.49
2017-04-09T05:12:50.071Z,29.96
2017-04-09T05:13:47.853Z,30.07
2017-04-09T05:14:45.658Z,31.44
2017-04-09T05:15:43.436Z,30.66
2017-04-09T05:16:41.873Z,30.00
2017-04-09T05:17:39.629Z,28.19
2017-04-09T05:18:37.405Z,28.93
2017-04-09T05:19:35.212Z,28.64
2017-04-09T05:20:32.978Z,32.49
2017-04-09T05:21:30.773Z,31.03
2017-04-09T05:22:28.538Z,33.06
2017-04-09T05:23:26.349Z,33.93
2017-04-09T05:24:24.115Z,32.27
2017-04-09T05:25:21.889Z,33.74
2017-04-09T05:26:19.664Z,32.41
2017-04-09T05:27:18.111Z,35.29
2017-04-09T05:28:15.897Z,35.70
2017-04-09T05:29:13.665Z,34.94
2017-04-09T05:30:12.178Z,33.04
2017-04-09T05:31:09.969Z,39.19
2017-04-09T05:32:07.729Z,35.43
2017-04-09T05:33:05.505Z,31.64
2017-04-09T05:34:04.014Z,34.53
2017-04-09T05:35:01.912Z,35.20
2017-04-09T05:36:00.357Z,36.96
2017-04-09T05:36:58.816Z,33.31
2017-04-09T05:37:56.583Z,34.41
2017-04-09T05:38:54.368Z,35.03
2017-04-09T05:39:52.881Z,36.33
2017-04-09T05:40:50.686Z,35.54
2017-04-09T05:41:49.153Z,34.49
2017-04-09T05:42:46.913Z,35.36
2017-04-09T05:43:44.686Z,35.13
2017-04-09T05:44:43.203Z,33.60
2017-04-09T05:45:40.985Z,34.09
2017-04-09T05:46:38.786Z,33.14
2017-04-09T05:47:36.581Z,30.11
2017-04-09T05:48:34.369Z,32.99
2017-04-09T05:49:32.154Z,33.23
2017-04-09T05:50:29.945Z,36.86
2017-04-09T05:51:28.388Z,35.16
2017-04-09T05:52:26.149Z,33.23
2017-04-09T05:53:23.925Z,33.13
2017-04-09T05:54:21.681Z,35.53
2017-04-09T05:55:19.536Z,34.59
2017-04-09T05:56:17.313Z,35.76
2017-04-09T05:57:15.265Z,36.57
2017-04-09T05:58:13.033Z,34.24
2017-04-09T05:59:11.541Z,35.29
2017-04-09T06:00:09.376Z,34.69
2017-04-09T06:01:07.897Z,36.71
2017-04-09T06:02:05.685Z,35.40
2017-04-09T06:03:04.213Z,37.77
2017-04-09T06:04:02.005Z,37.54
2017-04-09T06:04:59.807Z,38.11
2017-04-09T06:05:57.589Z,35.69
2017-04-09T06:06:55.377Z,36.40
2017-04-09T06:07:53.168Z,35.01
2017-04-09T06:08:50.949Z,33.70
2017-04-09T06:09:48.762Z,33.86
2017-04-09T06:10:46.561Z,35.17
2017-04-09T06:11:44.342Z,35.19
2017-04-09T06:12:42.863Z,34.96
2017-04-09T06:13:40.669Z,34.16
2017-04-09T06:14:38.514Z,34.37
2017-04-09T06:15:36.349Z,33.03
2017-04-09T06:16:34.149Z,33.83
2017-04-09T06:17:31.949Z,37.01
2017-04-09T06:18:29.737Z,35.76
2017-04-09T06:19:27.541Z,34.67
2017-04-09T06:20:25.394Z,35.37
2017-04-09T06:21:23.218Z,34.46
2017-04-09T06:22:21.745Z,33.63
2017-04-09T06:23:19.533Z,36.10
2017-04-09T06:24:17.343Z,34.11
2017-04-09T06:25:15.157Z,35.30
2017-04-09T06:26:12.965Z,32.41
2017-04-09T06:27:10.767Z,37.67
2017-04-09T06:28:09.317Z,34.59
2017-04-09T06:29:07.107Z,33.06
2017-04-09T06:30:05.693Z,36.03
2017-04-09T06:31:03.465Z,36.94
2017-04-09T06:32:01.367Z,35.03
2017-04-09T06:32:59.146Z,35.26
2017-04-09T06:33:57.685Z,32.00
2017-04-09T06:34:55.488Z,34.10
2017-04-09T06:35:53.311Z,34.84
2017-04-09T06:36:51.157Z,32.96
2017-04-09T06:37:48.951Z,32.76
2017-04-09T06:38:46.754Z,32.77
2017-04-09T06:39:45.296Z,33.59
2017-04-09T06:40:43.093Z,34.66
2017-04-09T06:41:41.565Z,32.13
2017-04-09T06:42:39.341Z,34.73
2017-04-09T06:43:37.897Z,31.99
2017-04-09T06:44:36.466Z,33.56
2017-04-09T06:45:34.270Z,31.26
2017-04-09T06:46:32.073Z,33.46
2017-04-09T06:47:30.753Z,33.57
2017-04-09T06:48:28.565Z,33.23
2017-04-09T06:49:26.391Z,32.21
2017-04-09T06:50:24.205Z,34.49
2017-04-09T06:51:22.685Z,32.81
2017-04-09T06:52:21.143Z,31.01
2017-04-09T06:53:18.925Z,33.20
2017-04-09T06:54:17.457Z,34.31
2017-04-09T06:55:15.341Z,30.01
2017-04-09T06:56:13.141Z,30.81
2017-04-09T06:57:10.968Z,33.26
2017-04-09T06:58:08.817Z,33.76
2017-04-09T06:59:07.385Z,32.56
2017-04-09T07:00:05.193Z,31.59
2017-04-09T07:01:03.041Z,33.71
2017-04-09T07:02:00.857Z,30.23
2017-04-09T07:02:59.413Z,30.59
2017-04-09T07:03:58.009Z,30.11
2017-04-09T07:04:56.578Z,31.14
2017-04-09T07:05:55.149Z,31.93
2017-04-09T07:06:52.937Z,29.37
2017-04-09T07:07:50.733Z,28.03
2017-04-09T07:08:48.513Z,31.09
2017-04-09T07:09:47.038Z,29.20
2017-04-09T07:10:44.872Z,29.04
2017-04-09T07:11:42.714Z,30.33
2017-04-09T07:12:40.534Z,29.51
2017-04-09T07:13:38.989Z,28.77
2017-04-09T07:14:36.776Z,28.44
2017-04-09T07:15:34.552Z,30.13
2017-04-09T07:16:32.437Z,31.36
2017-04-09T07:17:30.301Z,31.23
2017-04-09T07:18:28.096Z,29.59
2017-04-09T07:19:26.629Z,31.10
2017-04-09T07:20:24.441Z,28.20
2017-04-09T07:21:22.256Z,29.97
2017-04-09T07:22:20.057Z,28.89
2017-04-09T07:23:17.858Z,27.94
2017-04-09T07:24:15.705Z,28.43
2017-04-09T07:25:13.501Z,28.00
2017-04-09T07:26:12.042Z,29.09
2017-04-09T07:27:09.932Z,27.87
2017-04-09T07:28:07.743Z,29.40
2017-04-09T07:29:05.537Z,28.96
2017-04-09T07:30:03.325Z,30.80
2017-04-09T07:31:01.109Z,29.23
2017-04-09T07:31:58.949Z,30.00
2017-04-09T07:32:56.721Z,31.57
2017-04-09T07:33:54.525Z,26.76
2017-04-09T07:34:52.333Z,28.10
2017-04-09T07:35:50.129Z,27.84
2017-04-09T07:36:47.925Z,28.39
2017-04-09T07:37:45.759Z,28.19
2017-04-09T07:38:43.605Z,27.54
2017-04-09T07:39:41.393Z,27.49
2017-04-09T07:40:39.208Z,27.44
2017-04-09T07:41:37.085Z,28.73
2017-04-09T07:42:34.879Z,26.80
2017-04-09T07:43:32.661Z,25.77
2017-04-09T07:44:31.146Z,24.53
2017-04-09T07:45:29.695Z,23.04
2017-04-09T07:46:27.510Z,21.37
2017-04-09T07:47:25.354Z,30.20
2017-04-09T07:48:23.162Z,28.33
2017-04-09T07:49:20.948Z,28.57
2017-04-09T07:50:18.753Z,26.37
2017-04-09T07:51:16.560Z,27.50
2017-04-09T07:52:14.370Z,23.46
2017-04-09T07:53:12.160Z,30.41
2017-04-09T07:54:10.714Z,26.71
2017-04-09T07:55:08.500Z,28.50
2017-04-09T07:56:06.366Z,26.09
2017-04-09T07:57:04.161Z,28.61
2017-04-09T07:58:01.957Z,15.90
2017-04-09T07:59:00.537Z,29.53
2017-04-09T07:59:58.333Z,9.97
2017-04-09T08:00:56.201Z,29.07
2017-04-09T08:01:53.986Z,28.11
2017-04-09T08:02:51.783Z,29.13
2017-04-09T08:03:49.588Z,24.50
2017-04-09T08:04:47.377Z,15.39
2017-04-09T08:05:45.259Z,26.10
2017-04-09T08:06:43.067Z,26.39
2017-04-09T08:07:41.656Z,27.40
2017-04-09T08:08:39.465Z,24.69
2017-04-09T08:09:37.260Z,31.79
2017-04-09T08:10:35.042Z,23.24
2017-04-09T08:11:32.899Z,25.39
2017-04-09T08:12:30.691Z,28.46
2017-04-09T08:13:28.489Z,22.89
2017-04-09T08:14:26.263Z,19.13
2017-04-09T08:15:24.078Z,28.80
2017-04-09T08:16:22.609Z,16.87
2017-04-09T08:17:20.429Z,16.60
2017-04-09T08:18:18.220Z,28.40
2017-04-09T08:19:16.014Z,28.27
2017-04-09T08:20:13.820Z,23.50
2017-04-09T08:21:11.609Z,29.49
2017-04-09T08:22:09.394Z,26.36
2017-04-09T08:23:07.929Z,29.37
2017-04-09T08:24:05.721Z,30.76
2017-04-09T08:25:03.501Z,11.41
2017-04-09T08:26:01.286Z,25.73
2017-04-09T08:26:59.092Z,17.64
2017-04-09T08:27:56.918Z,23.87
2017-04-09T08:28:54.735Z,20.24
2017-04-09T08:29:52.554Z,20.74
2017-04-09T08:30:50.342Z,14.66
2017-04-09T08:31:48.165Z,13.11
2017-04-09T08:32:45.997Z,10.03
2017-04-09T08:33:43.845Z,29.51
2017-04-09T08:34:42.418Z,14.44
2017-04-09T08:35:40.209Z,19.14
2017-04-09T08:36:38.053Z,28.66
2017-04-09T08:37:35.866Z,8.44
2017-04-09T08:38:33.666Z,6.81
2017-04-09T08:39:31.486Z,12.14
2017-04-09T08:40:29.961Z,11.31
2017-04-09T08:41:28.597Z,12.77
2017-04-09T08:42:26.404Z,21.41
2017-04-09T08:43:24.214Z,8.44
2017-04-09T08:44:22.029Z,18.94
2017-04-09T08:45:19.854Z,20.60
2017-04-09T08:46:18.326Z,21.53
2017-04-09T08:47:16.173Z,19.51
2017-04-09T08:48:14.637Z,20.30
2017-04-09T08:49:12.477Z,20.56
2017-04-09T08:50:10.294Z,23.09
2017-04-09T08:51:08.106Z,25.40
2017-04-09T08:52:05.925Z,9.30
2017-04-09T08:53:03.717Z,14.20
2017-04-09T08:54:01.557Z,6.57
2017-04-09T08:54:59.372Z,15.87
2017-04-09T08:55:57.241Z,24.33
2017-04-09T08:56:55.058Z,16.79
2017-04-09T08:57:52.887Z,9.89
2017-04-09T08:58:50.873Z,8.23
2017-04-09T08:59:49.377Z,12.49
2017-04-09T09:00:47.178Z,10.34
2017-04-09T09:01:45.001Z,10.26
2017-04-09T09:02:42.845Z,14.34
2017-04-09T09:03:40.677Z,13.36
2017-04-09T09:04:38.485Z,7.86
2017-04-09T09:05:36.352Z,10.71
2017-04-09T09:06:34.149Z,12.19
2017-04-09T09:07:32.682Z,19.06
2017-04-09T09:08:30.481Z,7.96
2017-04-09T09:09:29.041Z,8.61
2017-04-09T09:10:26.825Z,6.56
2017-04-09T09:11:24.609Z,6.61
2017-04-09T09:12:22.412Z,14.77
2017-04-09T09:13:20.213Z,13.94
2017-04-09T09:14:18.029Z,6.73
2017-04-09T09:15:16.573Z,5.73
2017-04-09T09:16:14.376Z,6.24
2017-04-09T09:17:12.204Z,6.03
2017-04-09T09:18:10.085Z,16.04
2017-04-09T09:19:07.907Z,9.81
2017-04-09T09:20:06.369Z,18.11
2017-04-09T09:21:04.171Z,6.70
2017-04-09T09:22:01.983Z,8.49
2017-04-09T09:23:00.570Z,12.37
2017-04-09T09:23:58.390Z,9.60
2017-04-09T09:24:56.238Z,9.80
2017-04-09T09:25:54.101Z,13.63
2017-04-09T09:26:51.891Z,6.91
2017-04-09T09:27:50.469Z,8.33
2017-04-09T09:28:48.282Z,10.54
2017-04-09T09:29:46.098Z,12.86
2017-04-09T09:30:43.887Z,10.96
2017-04-09T09:31:41.689Z,18.57
2017-04-09T09:32:39.503Z,8.51
2017-04-09T09:33:37.300Z,18.54
2017-04-09T09:34:35.871Z,11.19
2017-04-09T09:35:34.417Z,13.31
2017-04-09T09:36:32.214Z,9.19
2017-04-09T09:37:30.005Z,11.26
2017-04-09T09:38:28.010Z,9.83
2017-04-09T09:39:25.870Z,12.36
2017-04-09T09:40:24.470Z,6.81
2017-04-09T09:41:22.330Z,10.39
2017-04-09T09:42:20.118Z,8.49
2017-04-09T09:43:18.006Z,10.07
2017-04-09T09:44:15.899Z,7.14
2017-04-09T09:45:13.683Z,10.17
2017-04-09T09:46:11.489Z,9.91
2017-04-09T09:47:09.533Z,18.93
2017-04-09T09:48:07.425Z,11.99
2017-04-09T09:49:05.249Z,16.13
2017-04-09T09:50:03.817Z,8.64
2017-04-09T09:51:01.623Z,9.63
2017-04-09T09:51:59.433Z,11.57
2017-04-09T09:52:57.246Z,14.66
2017-04-09T09:53:55.065Z,17.49
2017-04-09T09:54:52.865Z,7.70
2017-04-09T09:55:50.676Z,15.51
2017-04-09T09:56:48.465Z,17.81
2017-04-09T09:57:46.263Z,8.97
2017-04-09T09:58:44.049Z,10.59
2017-04-09T09:59:41.870Z,13.09
2017-04-09T10:00:39.721Z,8.37
2017-04-09T10:01:38.157Z,12.93
2017-04-09T10:02:35.921Z,9.83
2017-04-09T10:03:33.721Z,20.99
2017-04-09T10:04:32.705Z,12.63
2017-04-09T10:05:31.203Z,21.27
2017-04-09T10:06:29.066Z,16.30
2017-04-09T10:07:26.889Z,15.57
2017-04-09T10:08:24.745Z,10.96
2017-04-09T10:09:22.629Z,15.23
2017-04-09T10:10:20.514Z,10.97
2017-04-09T10:11:18.340Z,10.84
2017-04-09T10:12:16.157Z,17.43
2017-04-09T10:13:14.665Z,10.27
2017-04-09T10:14:12.538Z,12.29
2017-04-09T10:15:10.585Z,10.24
2017-04-09T10:16:08.564Z,21.03
2017-04-09T10:17:06.421Z,14.76
2017-04-09T10:18:04.326Z,12.46
2017-04-09T10:19:02.116Z,10.86
2017-04-09T10:20:00.027Z,12.13
2017-04-09T10:20:57.850Z,17.43
2017-04-09T10:21:55.626Z,7.29
2017-04-09T10:22:53.434Z,16.53
2017-04-09T10:23:51.250Z,6.67
2017-04-09T10:24:49.033Z,11.40
2017-04-09T10:25:46.808Z,8.79
2017-04-09T10:26:44.793Z,15.31
2017-04-09T10:27:42.575Z,14.14
2017-04-09T10:28:40.363Z,19.24
2017-04-09T10:29:38.170Z,26.43
2017-04-09T10:30:35.937Z,12.24
2017-04-09T10:31:34.516Z,10.39
2017-04-09T10:32:33.043Z,13.06
2017-04-09T10:33:31.513Z,16.60
2017-04-09T10:34:29.301Z,12.00
2017-04-09T10:35:27.057Z,8.39
2017-04-09T10:36:24.817Z,10.81
2017-04-09T10:37:22.573Z,12.03
2017-04-09T10:38:20.329Z,13.24
2017-04-09T10:39:18.292Z,12.06
2017-04-09T10:40:16.096Z,20.67
2017-04-09T10:41:13.890Z,15.73
2017-04-09T10:42:12.437Z,27.90
2017-04-09T10:43:10.220Z,30.17
2017-04-09T10:44:08.777Z,31.31
2017-04-09T10:45:07.302Z,20.76
2017-04-09T10:46:05.098Z,29.34
2017-04-09T10:47:02.977Z,29.94
2017-04-09T10:48:00.814Z,25.96
2017-04-09T10:48:58.589Z,14.33
2017-04-09T10:49:57.129Z,12.33
2017-04-09T10:50:54.961Z,17.61
2017-04-09T10:51:52.787Z,15.73
2017-04-09T10:52:50.622Z,17.64
2017-04-09T10:53:49.206Z,16.33
2017-04-09T10:54:47.730Z,17.20
2017-04-09T10:55:46.333Z,26.91
2017-04-09T10:56:44.847Z,22.53
2017-04-09T10:57:42.603Z,16.73
2017-04-09T10:58:40.382Z,21.81
2017-04-09T10:59:38.191Z,20.10
2017-04-09T11:00:36.749Z,13.11
2017-04-09T11:01:35.321Z,16.61
2017-04-09T11:02:34.522Z,16.46
2017-04-09T11:03:33.057Z,15.50
2017-04-09T11:04:30.853Z,14.24
2017-04-09T11:05:28.745Z,17.07
2017-04-09T11:06:26.545Z,16.74
2017-04-09T11:07:24.423Z,23.91
2017-04-09T11:08:22.203Z,12.70
2017-04-09T11:09:20.069Z,22.93
2017-04-09T11:10:17.871Z,25.99
2017-04-09T11:11:16.526Z,23.59
2017-04-09T11:12:15.024Z,20.74
2017-04-09T11:13:13.575Z,17.66
2017-04-09T11:14:11.381Z,23.96
2017-04-09T11:15:09.170Z,11.47
2017-04-09T11:16:06.978Z,23.13
2017-04-09T11:17:04.760Z,16.11
2017-04-09T11:18:02.540Z,22.67
2017-04-09T11:19:00.333Z,27.80
2017-04-09T11:19:58.150Z,24.43
2017-04-09T11:20:55.960Z,18.70
2017-04-09T11:21:53.753Z,26.24
2017-04-09T11:22:51.555Z,11.64
2017-04-09T11:23:49.354Z,19.40
2017-04-09T11:24:47.832Z,24.14
2017-04-09T11:25:45.617Z,17.87
2017-04-09T11:26:44.145Z,16.46
2017-04-09T11:27:42.037Z,13.46
2017-04-09T11:28:39.816Z,25.41
2017-04-09T11:29:38.365Z,13.93
2017-04-09T11:30:36.165Z,21.76
2017-04-09T11:31:33.969Z,14.39
2017-04-09T11:32:32.428Z,20.06
2017-04-09T11:33:30.209Z,23.96
2017-04-09T11:34:28.789Z,14.03
2017-04-09T11:35:27.445Z,23.70
2017-04-09T11:36:26.017Z,22.56
2017-04-09T11:37:24.517Z,16.96
2017-04-09T11:38:23.166Z,19.53
2017-04-09T11:39:20.978Z,26.56
2017-04-09T11:40:18.809Z,17.53
2017-04-09T11:41:16.609Z,20.91
2017-04-09T11:42:14.397Z,18.23
2017-04-09T11:43:12.957Z,15.91
2017-04-09T11:44:11.573Z,12.60
2017-04-09T11:45:09.374Z,20.67
2017-04-09T11:46:07.198Z,20.70
2017-04-09T11:47:05.015Z,15.16
2017-04-09T11:48:02.909Z,18.23
2017-04-09T11:49:00.761Z,12.89
2017-04-09T11:49:58.577Z,17.24
2017-04-09T11:50:57.139Z,12.04
2017-04-09T11:51:55.013Z,22.74
2017-04-09T11:52:52.825Z,21.23
2017-04-09T11:53:50.625Z,15.90
2017-04-09T11:54:49.202Z,20.90
2017-04-09T11:55:47.782Z,19.90
2017-04-09T11:56:45.645Z,14.60
2017-04-09T11:57:43.520Z,14.23
2017-04-09T11:58:41.321Z,12.41
2017-04-09T11:59:39.788Z,21.14
2017-04-09T12:00:38.397Z,25.76
2017-04-09T12:01:37.183Z,13.70
2017-04-09T12:02:35.015Z,12.59
2017-04-09T12:03:32.829Z,21.31
2017-04-09T12:04:31.103Z,22.56
2017-04-09T12:05:28.909Z,13.61
2017-04-09T12:06:26.697Z,21.59
2017-04-09T12:07:24.477Z,17.23
2017-04-09T12:08:22.254Z,25.17
2017-04-09T12:09:20.797Z,16.94
2017-04-09T12:10:18.625Z,13.89
2017-04-09T12:11:16.441Z,12.59
2017-04-09T12:12:14.990Z,14.19
2017-04-09T12:13:12.765Z,21.91
2017-04-09T12:14:11.363Z,17.63
2017-04-09T12:15:09.269Z,13.21
2017-04-09T12:16:07.110Z,13.80
2017-04-09T12:17:04.950Z,14.01
2017-04-09T12:18:02.727Z,20.04
2017-04-09T12:19:00.559Z,16.69
2017-04-09T12:19:58.481Z,24.36
2017-04-09T12:20:56.301Z,21.69
2017-04-09T12:21:54.137Z,25.06
2017-04-09T12:22:52.001Z,20.63
2017-04-09T12:23:49.817Z,22.36
2017-04-09T12:24:47.625Z,22.71
2017-04-09T12:25:45.409Z,21.50
2017-04-09T12:26:43.203Z,15.07
2017-04-09T12:27:41.060Z,22.51
2017-04-09T12:28:38.853Z,15.21